createdAt,value
2022-08-17T00:00:34.883Z,22.39
2022-08-17T00:03:05.913Z,23.39
2022-08-17T00:05:40.052Z,22.50
2022-08-17T00:08:06.973Z,22.88
2022-08-17T00:10:33.956Z,22.98
2022-08-17T00:13:06.180Z,23.35
2022-08-17T00:15:32.932Z,22.79
2022-08-17T00:18:02.350Z,23.11
2022-08-17T00:20:34.864Z,22.89
2022-08-17T00:23:15.572Z,22.95
2022-08-17T00:25:44.523Z,23.32
2022-08-17T00:28:20.874Z,23.28
2022-08-17T00:30:53.403Z,22.69
2022-08-17T00:33:26.509Z,22.36
2022-08-17T00:35:57.796Z,22.63
2022-08-17T00:38:27.713Z,22.54
2022-08-17T00:41:03.965Z,23.14
2022-08-17T00:43:44.164Z,23.12
2022-08-17T00:46:14.408Z,23.11
2022-08-17T00:48:44.883Z,22.86
2022-08-17T00:51:17.538Z,22.93
2022-08-17T00:53:54.993Z,22.60
2022-08-17T00:56:32.369Z,22.03
2022-08-17T00:59:06.789Z,22.03
2022-08-17T01:01:33.902Z,22.72
2022-08-17T01:04:05.103Z,22.94
2022-08-17T01:06:32.764Z,21.63
2022-08-17T01:09:00.691Z,22.82
2022-08-17T01:11:30.023Z,22.82
2022-08-17T01:13:59.216Z,22.36
2022-08-17T01:16:30.954Z,22.67
2022-08-17T01:19:09.420Z,22.52
2022-08-17T01:22:04.160Z,22.38
2022-08-17T01:24:34.218Z,22.12
2022-08-17T01:27:01.470Z,20.92
2022-08-17T01:29:31.021Z,20.94
2022-08-17T01:32:01.198Z,21.67
2022-08-17T01:34:35.263Z,21.11
2022-08-17T01:37:10.866Z,21.30
2022-08-17T01:39:48.077Z,21.81
2022-08-17T01:42:26.221Z,21.20
2022-08-17T01:44:56.727Z,21.13
2022-08-17T01:47:23.992Z,21.77
2022-08-17T01:49:50.819Z,22.16
2022-08-17T01:52:17.607Z,22.38
2022-08-17T01:54:47.721Z,22.31
2022-08-17T01:57:14.846Z,22.45
2022-08-17T01:59:41.531Z,22.48
2022-08-17T02:02:08.766Z,22.26
2022-08-17T02:04:36.032Z,21.57
2022-08-17T02:07:03.110Z,21.43
2022-08-17T02:09:31.386Z,21.79
2022-08-17T02:12:38.042Z,21.26
2022-08-17T02:14:51.316Z,21.67
2022-08-17T02:17:18.608Z,22.41
2022-08-17T02:19:47.511Z,22.41
2022-08-17T02:22:14.248Z,22.35
2022-08-17T02:24:59.386Z,21.13
2022-08-17T02:27:27.776Z,22.35
2022-08-17T02:29:54.535Z,22.39
2022-08-17T02:32:28.362Z,22.42
2022-08-17T02:34:58.028Z,22.24
2022-08-17T02:37:26.773Z,22.42
2022-08-17T02:39:53.782Z,22.40
2022-08-17T02:42:34.409Z,21.68
2022-08-17T02:45:02.572Z,21.58
2022-08-17T02:47:29.764Z,22.07
2022-08-17T02:50:00.165Z,22.29
2022-08-17T02:52:43.252Z,21.52
2022-08-17T02:55:24.605Z,21.56
2022-08-17T02:57:55.042Z,22.15
2022-08-17T03:00:26.522Z,21.17
2022-08-17T03:02:54.092Z,21.83
2022-08-17T03:05:25.826Z,21.57
2022-08-17T03:07:55.303Z,22.19
2022-08-17T03:10:22.723Z,22.17
2022-08-17T03:12:53.107Z,22.17
2022-08-17T03:15:31.553Z,22.17
2022-08-17T03:17:59.373Z,22.15
2022-08-17T03:20:27.543Z,22.14
2022-08-17T03:23:02.876Z,22.12
2022-08-17T03:25:36.346Z,21.89
2022-08-17T03:28:04.711Z,22.09
2022-08-17T03:30:31.487Z,22.06
2022-08-17T03:33:03.039Z,22.01
2022-08-17T03:35:34.332Z,21.98
2022-08-17T03:38:05.386Z,21.56
2022-08-17T03:40:34.565Z,21.89
2022-08-17T03:43:20.936Z,21.58
2022-08-17T03:46:11.061Z,21.46
2022-08-17T03:49:14.311Z,21.79
2022-08-17T03:51:59.817Z,21.77
2022-08-17T03:54:45.244Z,21.73
2022-08-17T03:57:16.689Z,20.57
2022-08-17T03:59:45.111Z,21.66
2022-08-17T04:02:16.518Z,21.02
2022-08-17T04:04:45.892Z,21.68
2022-08-17T04:07:15.101Z,21.69
2022-08-17T04:09:43.190Z,21.54
2022-08-17T04:12:10.043Z,21.74
2022-08-17T04:14:53.245Z,21.29
2022-08-17T04:17:22.548Z,21.51
2022-08-17T04:19:49.383Z,21.70
2022-08-17T04:22:33.155Z,21.74
2022-08-17T04:25:05.915Z,21.69
2022-08-17T04:27:34.108Z,21.74
2022-08-17T04:30:07.683Z,21.57
2022-08-17T04:33:06.453Z,21.85
2022-08-17T04:35:39.527Z,20.37
2022-08-17T04:38:07.710Z,21.68
2022-08-17T04:40:53.969Z,21.95
2022-08-17T04:43:24.932Z,20.39
2022-08-17T04:45:57.965Z,22.00
2022-08-17T04:48:36.690Z,21.89
2022-08-17T04:51:11.094Z,21.95
2022-08-17T04:53:44.183Z,21.98
2022-08-17T04:56:16.588Z,21.94
2022-08-17T04:58:51.707Z,22.00
2022-08-17T05:01:23.849Z,22.07
2022-08-17T05:03:56.264Z,22.16
2022-08-17T05:06:26.424Z,21.50
2022-08-17T05:08:56.796Z,21.98
2022-08-17T05:11:26.873Z,22.14
2022-08-17T05:13:54.843Z,21.99
2022-08-17T05:16:22.747Z,21.36
2022-08-17T05:18:52.227Z,21.92
2022-08-17T05:21:23.092Z,22.03
2022-08-17T05:23:54.896Z,21.50
2022-08-17T05:26:27.391Z,21.39
2022-08-17T05:28:59.409Z,21.92
2022-08-17T05:31:31.373Z,22.12
2022-08-17T05:33:58.725Z,22.15
2022-08-17T05:36:37.946Z,22.18
2022-08-17T05:39:16.089Z,22.29
2022-08-17T05:41:45.588Z,22.38
2022-08-17T05:44:12.348Z,22.43
2022-08-17T05:46:44.109Z,22.10
2022-08-17T05:49:11.174Z,22.57
2022-08-17T05:52:02.500Z,22.36
2022-08-17T05:54:51.748Z,22.51
2022-08-17T05:57:53.335Z,22.23
2022-08-17T06:00:59.704Z,22.89
2022-08-17T06:03:42.554Z,22.98
2022-08-17T06:06:42.100Z,23.06
2022-08-17T06:09:27.622Z,22.37
2022-08-17T06:12:03.681Z,22.07
2022-08-17T06:15:01.496Z,23.32
2022-08-17T06:17:31.585Z,23.04
2022-08-17T06:20:01.740Z,23.44
2022-08-17T06:22:33.773Z,23.53
2022-08-17T06:25:10.014Z,23.51
2022-08-17T06:27:43.987Z,23.64
2022-08-17T06:30:26.182Z,22.72
2022-08-17T06:32:55.402Z,23.78
2022-08-17T06:35:34.124Z,23.85
2022-08-17T06:38:00.844Z,23.94
2022-08-17T06:40:33.438Z,24.02
2022-08-17T06:43:13.611Z,23.99
2022-08-17T06:45:51.279Z,24.17
2022-08-17T06:48:25.133Z,24.23
2022-08-17T06:51:00.425Z,24.26
2022-08-17T06:53:35.211Z,24.29
2022-08-17T06:56:06.404Z,23.33
2022-08-17T06:58:35.600Z,24.45
2022-08-17T07:01:17.950Z,24.45
2022-08-17T07:03:54.617Z,24.47
2022-08-17T07:06:29.108Z,23.84
2022-08-17T07:09:02.368Z,24.82
2022-08-17T07:11:40.635Z,24.95
2022-08-17T07:14:29.010Z,25.03
2022-08-17T07:17:04.423Z,25.17
2022-08-17T07:19:33.240Z,24.07
2022-08-17T07:22:06.224Z,25.38
2022-08-17T07:24:43.213Z,25.52
2022-08-17T07:27:22.606Z,25.00
2022-08-17T07:29:56.634Z,25.49
2022-08-17T07:32:29.264Z,25.78
2022-08-17T07:35:10.770Z,25.80
2022-08-17T07:37:39.587Z,24.80
2022-08-17T07:40:47.483Z,25.89
2022-08-17T07:43:32.850Z,25.26
2022-08-17T07:46:19.859Z,26.09
2022-08-17T07:48:52.029Z,26.28
2022-08-17T07:51:29.485Z,25.93
2022-08-17T07:54:13.573Z,26.08
2022-08-17T07:56:56.577Z,25.28
2022-08-17T07:59:34.700Z,26.94
2022-08-17T08:02:06.268Z,27.08
2022-08-17T08:07:32.036Z,27.01
2022-08-17T08:10:09.617Z,27.39
2022-08-17T08:12:37.761Z,27.52
2022-08-17T08:15:25.747Z,27.63
2022-08-17T08:18:03.106Z,27.78
2022-08-17T08:20:53.535Z,27.68
2022-08-17T08:23:36.303Z,28.07
2022-08-17T08:26:18.469Z,28.20
2022-08-17T08:28:51.798Z,28.30
2022-08-17T08:32:06.146Z,28.41
2022-08-17T08:35:01.502Z,27.58
2022-08-17T08:37:57.583Z,28.64
2022-08-17T08:40:54.740Z,28.76
2022-08-17T08:43:53.013Z,28.89
2022-08-17T08:46:31.961Z,29.00
2022-08-17T08:50:02.092Z,29.14
2022-08-17T08:52:34.044Z,29.29
2022-08-17T08:55:08.399Z,29.47
2022-08-17T08:57:41.587Z,29.34
2022-08-17T09:00:16.560Z,29.75
2022-08-17T09:03:05.220Z,29.86
2022-08-17T09:06:38.533Z,29.94
2022-08-17T09:09:25.559Z,29.67
2022-08-17T09:12:04.299Z,29.98
2022-08-17T09:14:59.511Z,29.29
2022-08-17T09:17:39.566Z,30.25
2022-08-17T09:20:28.118Z,30.25
2022-08-17T09:23:04.022Z,30.46
2022-08-17T09:25:44.233Z,30.55
2022-08-17T09:28:19.409Z,30.63
2022-08-17T09:31:02.467Z,29.99
2022-08-17T09:33:34.477Z,30.47
2022-08-17T09:36:11.258Z,30.80
2022-08-17T09:38:49.414Z,30.89
2022-08-17T09:41:16.135Z,30.35
2022-08-17T09:43:57.436Z,31.11
2022-08-17T09:46:32.448Z,31.24
2022-08-17T09:49:10.754Z,31.33
2022-08-17T09:51:51.859Z,31.54
2022-08-17T09:54:41.129Z,31.70
2022-08-17T09:57:28.549Z,31.85
2022-08-17T10:00:18.722Z,32.00
2022-08-17T10:02:53.485Z,32.15
2022-08-17T10:05:33.214Z,31.99
2022-08-17T10:08:12.534Z,31.40
2022-08-17T10:10:52.385Z,32.02
2022-08-17T10:13:41.832Z,32.66
2022-08-17T10:16:42.158Z,32.56
2022-08-17T10:19:34.652Z,32.77
2022-08-17T10:22:37.937Z,32.27
2022-08-17T10:25:48.625Z,33.06
2022-08-17T10:28:29.450Z,33.18
2022-08-17T10:31:23.299Z,33.39
2022-08-17T10:33:57.792Z,32.93
2022-08-17T10:36:47.412Z,33.43
2022-08-17T10:39:23.010Z,33.52
2022-08-17T10:41:54.354Z,33.58
2022-08-17T10:44:42.431Z,33.94
2022-08-17T10:47:16.995Z,32.84
2022-08-17T10:49:54.051Z,33.86
2022-08-17T10:52:21.994Z,34.47
2022-08-17T10:54:51.484Z,34.54
2022-08-17T10:57:34.606Z,34.64
2022-08-17T11:00:27.817Z,34.80
2022-08-17T11:02:58.372Z,35.04
2022-08-17T11:05:55.719Z,35.09
2022-08-17T11:08:54.229Z,35.35
2022-08-17T11:11:45.358Z,35.59
2022-08-17T11:14:18.097Z,35.49
2022-08-17T11:17:08.469Z,35.12
2022-08-17T11:20:15.115Z,35.30
2022-08-17T11:23:11.015Z,35.32
2022-08-17T11:25:41.252Z,35.36
2022-08-17T11:28:19.862Z,36.03
2022-08-17T11:30:50.817Z,36.39
2022-08-17T11:33:31.966Z,36.82
2022-08-17T11:36:15.775Z,37.14
2022-08-17T11:38:47.780Z,37.31
2022-08-17T11:41:17.367Z,37.37
2022-08-17T11:44:03.951Z,37.54
2022-08-17T11:46:53.334Z,37.19
2022-08-17T11:50:05.574Z,37.30
2022-08-17T11:52:42.127Z,37.08
2022-08-17T11:55:39.321Z,37.52
2022-08-17T11:58:29.058Z,37.62
2022-08-17T12:01:04.427Z,37.09
2022-08-17T12:03:36.880Z,37.20
2022-08-17T12:06:07.779Z,37.44
2022-08-17T12:08:43.440Z,37.25
2022-08-17T12:11:19.019Z,37.29
2022-08-17T12:14:07.435Z,36.87
2022-08-17T12:16:34.284Z,37.51
2022-08-17T12:19:02.527Z,38.22
2022-08-17T12:21:38.339Z,37.88
2022-08-17T12:24:17.518Z,39.06
2022-08-17T12:26:59.790Z,39.86
2022-08-17T12:29:35.561Z,39.79
2022-08-17T12:32:07.094Z,39.79
2022-08-17T12:34:43.087Z,39.71
2022-08-17T12:37:21.225Z,40.81
2022-08-17T12:40:00.347Z,40.26
2022-08-17T12:42:31.079Z,40.35
2022-08-17T12:45:05.022Z,39.88
2022-08-17T12:47:37.180Z,39.50
2022-08-17T12:50:29.120Z,39.16
2022-08-17T12:53:02.240Z,39.70
2022-08-17T12:55:32.525Z,40.21
2022-08-17T12:58:01.799Z,39.80
2022-08-17T13:00:41.835Z,39.07
2022-08-17T13:03:20.975Z,40.02
2022-08-17T13:06:03.766Z,41.26
2022-08-17T13:08:37.898Z,41.77
2022-08-17T13:11:06.417Z,42.84
2022-08-17T13:13:39.115Z,43.95
2022-08-17T13:16:13.485Z,43.68
2022-08-17T13:18:45.973Z,41.90
2022-08-17T13:21:28.178Z,42.67
2022-08-17T13:24:02.763Z,42.23
2022-08-17T13:26:41.306Z,41.59
2022-08-17T13:29:29.030Z,43.48
2022-08-17T13:32:18.000Z,44.73
2022-08-17T13:35:12.154Z,45.22
2022-08-17T13:37:41.051Z,46.67
2022-08-17T13:40:11.770Z,47.63
2022-08-17T13:42:54.180Z,46.28
2022-08-17T13:45:39.891Z,45.46
2022-08-17T13:48:14.094Z,45.82
2022-08-17T13:50:41.432Z,46.59
2022-08-17T13:53:24.759Z,44.56
2022-08-17T13:56:37.675Z,44.41
2022-08-17T13:59:12.511Z,41.54
2022-08-17T14:01:54.022Z,42.97
2022-08-17T14:04:23.815Z,43.40
2022-08-17T14:07:03.711Z,43.48
2022-08-17T14:09:40.956Z,42.91
2022-08-17T14:12:17.020Z,44.15
2022-08-17T14:14:46.456Z,45.11
2022-08-17T14:17:18.510Z,46.30
2022-08-17T14:19:45.391Z,46.98
2022-08-17T14:22:23.672Z,46.59
2022-08-17T14:24:53.723Z,46.10
2022-08-17T14:30:32.158Z,46.40
2022-08-17T14:33:10.247Z,44.75
2022-08-17T14:35:39.956Z,45.08
2022-08-17T14:38:06.727Z,45.63
2022-08-17T14:40:34.813Z,46.04
2022-08-17T14:43:01.680Z,46.61
2022-08-17T14:45:33.734Z,46.86
2022-08-17T14:48:04.540Z,46.62
2022-08-17T14:50:35.922Z,45.74
2022-08-17T14:53:04.625Z,45.35
2022-08-17T14:55:34.368Z,44.87
2022-08-17T14:58:01.223Z,45.16
2022-08-17T15:00:28.936Z,43.95
2022-08-17T15:02:59.011Z,43.73
2022-08-17T15:05:31.920Z,43.19
2022-08-17T15:08:07.261Z,44.02
2022-08-17T15:10:34.418Z,44.46
2022-08-17T15:13:04.531Z,44.04
2022-08-17T15:15:33.736Z,45.69
2022-08-17T15:18:03.845Z,46.43
2022-08-17T15:20:33.296Z,46.90
2022-08-17T15:23:07.056Z,46.44
2022-08-17T15:25:36.671Z,46.01
2022-08-17T15:28:06.463Z,45.61
2022-08-17T15:30:35.792Z,44.96
2022-08-17T15:33:05.772Z,45.70
2022-08-17T15:35:34.519Z,45.26
2022-08-17T15:38:12.085Z,45.11
2022-08-17T15:40:43.483Z,45.40
2022-08-17T15:43:19.291Z,45.02
2022-08-17T15:45:59.617Z,45.64
2022-08-17T15:48:41.537Z,44.82
2022-08-17T15:51:08.658Z,43.05
2022-08-17T15:53:39.450Z,42.83
2022-08-17T15:56:09.733Z,41.59
2022-08-17T15:58:49.623Z,41.95
2022-08-17T16:03:06.215Z,41.64
2022-08-17T16:04:28.426Z,41.38
2022-08-17T16:07:02.984Z,40.88
2022-08-17T16:09:30.164Z,40.44
2022-08-17T16:11:57.376Z,39.84
2022-08-17T16:14:33.553Z,39.60
2022-08-17T16:17:03.940Z,39.12
2022-08-17T16:19:34.444Z,39.15
2022-08-17T16:22:04.189Z,38.82
2022-08-17T16:24:33.954Z,38.45
2022-08-17T16:27:01.498Z,38.30
2022-08-17T16:29:28.293Z,37.57
2022-08-17T16:31:58.112Z,37.31
2022-08-17T16:34:24.871Z,37.00
2022-08-17T16:36:56.028Z,37.26
2022-08-17T16:39:25.305Z,36.61
2022-08-17T16:41:52.200Z,37.08
2022-08-17T16:44:21.573Z,36.84
2022-08-17T16:46:48.959Z,36.79
2022-08-17T16:49:35.820Z,36.36
2022-08-17T16:52:11.912Z,36.35
2022-08-17T16:54:43.630Z,36.10
2022-08-17T16:57:11.699Z,36.12
2022-08-17T16:59:43.674Z,35.83
2022-08-17T17:02:28.834Z,35.59
2022-08-17T17:05:25.168Z,35.63
2022-08-17T17:08:04.002Z,35.53
2022-08-17T17:10:33.631Z,34.86
2022-08-17T17:13:03.479Z,35.23
2022-08-17T17:15:46.730Z,34.82
2022-08-17T17:18:18.227Z,34.99
2022-08-17T17:20:57.236Z,34.79
2022-08-17T17:23:32.955Z,34.56
2022-08-17T17:26:06.205Z,34.36
2022-08-17T17:28:48.875Z,34.16
2022-08-17T17:31:42.471Z,34.01
2022-08-17T17:34:13.840Z,32.49
2022-08-17T17:36:48.339Z,33.62
2022-08-17T17:39:20.098Z,33.45
2022-08-17T17:42:03.190Z,33.29
2022-08-17T17:44:38.055Z,32.86
2022-08-17T17:47:05.868Z,33.05
2022-08-17T17:49:36.967Z,31.99
2022-08-17T17:52:29.084Z,32.85
2022-08-17T17:55:07.673Z,32.74
2022-08-17T17:57:55.970Z,32.63
2022-08-17T18:00:26.441Z,31.90
2022-08-17T18:03:04.428Z,32.42
2022-08-17T18:05:57.266Z,32.32
2022-08-17T18:08:38.993Z,31.87
2022-08-17T18:11:25.184Z,32.11
2022-08-17T18:14:37.034Z,32.01
2022-08-17T18:17:07.566Z,31.37
2022-08-17T18:19:34.924Z,30.85
2022-08-17T18:22:14.013Z,31.56
2022-08-17T18:24:46.622Z,31.52
2022-08-17T18:27:25.643Z,31.61
2022-08-17T18:29:56.536Z,31.54
2022-08-17T18:32:33.165Z,31.48
2022-08-17T18:35:19.799Z,31.42
2022-08-17T18:37:57.801Z,31.36
2022-08-17T18:40:33.065Z,29.94
2022-08-17T18:43:15.474Z,31.24
2022-08-17T18:45:48.982Z,30.95
2022-08-17T18:48:27.283Z,31.08
2022-08-17T18:51:14.257Z,31.00
2022-08-17T18:53:41.861Z,30.27
2022-08-17T18:56:31.198Z,30.83
2022-08-17T18:59:02.179Z,30.72
2022-08-17T19:01:52.374Z,29.01
2022-08-17T19:04:34.892Z,30.49
2022-08-17T19:07:12.632Z,29.61
2022-08-17T19:09:44.083Z,29.58
2022-08-17T19:12:26.277Z,30.22
2022-08-17T19:14:55.945Z,29.52
2022-08-17T19:17:29.062Z,29.65
2022-08-17T19:20:04.431Z,29.99
2022-08-17T19:22:50.072Z,28.79
2022-08-17T19:25:27.095Z,29.83
2022-08-17T19:28:02.010Z,29.74
2022-08-17T19:30:30.420Z,29.62
2022-08-17T19:32:58.673Z,29.52
2022-08-17T19:35:40.571Z,29.04
2022-08-17T19:38:27.639Z,29.44
2022-08-17T19:41:28.783Z,29.25
2022-08-17T19:44:22.246Z,29.38
2022-08-17T19:47:06.191Z,29.20
2022-08-17T19:50:10.866Z,29.35
2022-08-17T19:52:57.672Z,28.52
2022-08-17T19:55:33.086Z,29.28
2022-08-17T19:58:18.004Z,29.24
2022-08-17T20:00:51.712Z,29.19
2022-08-17T20:03:27.456Z,28.99
2022-08-17T20:06:15.070Z,28.40
2022-08-17T20:09:03.673Z,29.02
2022-08-17T20:11:42.291Z,28.11
2022-08-17T20:14:16.225Z,28.69
2022-08-17T20:16:45.715Z,28.00
2022-08-17T20:19:29.959Z,28.69
2022-08-17T20:22:04.007Z,27.80
2022-08-17T20:24:46.710Z,26.99
2022-08-17T20:27:17.218Z,27.63
2022-08-17T20:29:55.360Z,28.51
2022-08-17T20:32:30.474Z,28.44
2022-08-17T20:35:15.047Z,27.91
2022-08-17T20:37:44.828Z,28.34
2022-08-17T20:40:19.186Z,28.30
2022-08-17T20:42:46.174Z,28.24
2022-08-17T20:45:22.006Z,28.18
2022-08-17T20:50:57.863Z,27.82
2022-08-17T20:53:49.691Z,27.94
2022-08-17T20:56:44.409Z,27.87
2022-08-17T20:59:34.446Z,27.69
2022-08-17T21:02:17.673Z,27.53
2022-08-17T21:04:55.961Z,27.73
2022-08-17T21:07:43.224Z,27.65
2022-08-17T21:10:16.433Z,27.59
2022-08-17T21:12:48.760Z,27.53
2022-08-17T21:15:39.645Z,27.10
2022-08-17T21:18:28.293Z,27.36
2022-08-17T21:21:17.403Z,27.30
2022-08-17T21:24:08.799Z,27.22
2022-08-17T21:27:00.438Z,27.10
2022-08-17T21:29:34.273Z,26.71
2022-08-17T21:32:09.598Z,27.03
2022-08-17T21:35:18.841Z,26.96
2022-08-17T21:37:46.058Z,26.88
2022-08-17T21:40:18.277Z,26.83
2022-08-17T21:42:54.844Z,26.47
2022-08-17T21:45:35.570Z,26.32
2022-08-17T21:48:21.111Z,25.58
2022-08-17T21:51:12.122Z,26.55
2022-08-17T21:53:51.668Z,26.44
2022-08-17T21:56:36.414Z,26.40
2022-08-17T21:59:13.158Z,26.00
2022-08-17T22:01:51.417Z,26.30
2022-08-17T22:04:29.031Z,25.98
2022-08-17T22:07:02.790Z,26.23
2022-08-17T22:09:31.659Z,26.19
2022-08-17T22:12:03.568Z,26.13
2022-08-17T22:14:51.438Z,26.11
2022-08-17T22:17:37.945Z,25.69
2022-08-17T22:20:08.955Z,25.97
2022-08-17T22:23:19.926Z,25.06
2022-08-17T22:26:05.292Z,25.32
2022-08-17T22:28:36.941Z,25.65
2022-08-17T22:31:10.341Z,25.51
2022-08-17T22:33:42.832Z,25.81
2022-08-17T22:36:11.295Z,25.79
2022-08-17T22:38:41.730Z,25.78
2022-08-17T22:41:34.669Z,25.76
2022-08-17T22:44:17.262Z,25.76
2022-08-17T22:47:00.343Z,25.75
2022-08-17T22:49:38.561Z,25.39
2022-08-17T22:52:34.449Z,25.41
2022-08-17T22:55:35.148Z,25.27
2022-08-17T22:58:21.469Z,25.39
2022-08-17T23:00:49.712Z,25.52
2022-08-17T23:03:22.278Z,25.43
2022-08-17T23:06:11.596Z,24.56
2022-08-17T23:08:59.391Z,25.03
2022-08-17T23:11:49.323Z,24.68
2022-08-17T23:14:25.344Z,24.36
2022-08-17T23:16:52.164Z,24.97
2022-08-17T23:19:26.435Z,24.48
2022-08-17T23:21:56.017Z,24.50
2022-08-17T23:24:26.190Z,24.71
2022-08-17T23:26:59.008Z,24.62
2022-08-17T23:29:31.921Z,24.55
2022-08-17T23:32:01.804Z,25.07
2022-08-17T23:34:28.744Z,24.77
2022-08-17T23:36:58.180Z,24.88
2022-08-17T23:39:27.731Z,24.62
2022-08-17T23:41:58.408Z,24.72
2022-08-17T23:44:25.927Z,24.82
2022-08-17T23:46:56.320Z,24.93
2022-08-17T23:49:26.624Z,24.89
2022-08-17T23:51:55.158Z,24.55
2022-08-17T23:54:21.877Z,24.99
2022-08-17T23:56:51.259Z,25.00
2022-08-17T23:59:20.032Z,25.00
